createdAt,value
2019-05-14T00:01:17.008Z,3.29
2019-05-14T00:04:38.371Z,4.23
2019-05-14T00:06:17.801Z,3.7
2019-05-14T00:07:57.341Z,3.53
2019-05-14T00:09:37.235Z,3.86
2019-05-14T00:11:17.981Z,3.65
2019-05-14T00:12:57.433Z,3.56
2019-05-14T00:14:47.211Z,4.74
2019-05-14T00:18:07.785Z,4.32
2019-05-14T00:19:47.215Z,4.05
2019-05-14T00:21:26.700Z,4.24
2019-05-14T00:23:06.306Z,3.6
2019-05-14T00:24:46.594Z,3.5
2019-05-14T00:26:25.969Z,3.63
2019-05-14T00:28:06.268Z,4.43
2019-05-14T00:29:46.787Z,3.93
2019-05-14T00:31:26.365Z,3.34
2019-05-14T00:33:06.177Z,4.31
2019-05-14T00:34:46.810Z,4.01
2019-05-14T00:36:26.529Z,3.79
2019-05-14T00:38:06.355Z,4.23
2019-05-14T00:39:46.555Z,4.24
2019-05-14T00:41:26.444Z,3.91
2019-05-14T00:43:07.617Z,4.05
2019-05-14T00:45:02.919Z,3.72
2019-05-14T00:46:44.314Z,4.62
2019-05-14T00:50:07.157Z,4
2019-05-14T00:51:46.537Z,3.9
2019-05-14T00:53:26.370Z,4.04
2019-05-14T00:55:06.082Z,4.23
2019-05-14T00:56:46.662Z,3.91
2019-05-14T00:58:26.722Z,4.44
2019-05-14T01:00:06.104Z,4.1
2019-05-14T01:01:47.407Z,3.83
2019-05-14T01:03:26.942Z,3.99
2019-05-14T01:05:06.827Z,3.89
2019-05-14T01:06:46.994Z,4.2
2019-05-14T01:08:26.513Z,4.21
2019-05-14T01:10:06.213Z,3.61
2019-05-14T01:11:46.984Z,3.79
2019-05-14T01:13:26.252Z,3.81
2019-05-14T01:15:17.359Z,4.03
2019-05-14T01:16:56.772Z,4.54
2019-05-14T01:18:37.270Z,3.66
2019-05-14T01:20:16.731Z,4.14
2019-05-14T01:21:56.145Z,4.69
2019-05-14T01:23:37.110Z,4.07
2019-05-14T01:25:31.543Z,4.3
2019-05-14T01:28:11.221Z,4.48
2019-05-14T01:29:54.104Z,4.38
2019-05-14T01:31:36.237Z,4.3
2019-05-14T01:33:16.778Z,4.05
2019-05-14T01:34:57.232Z,3.69
2019-05-14T01:36:37.119Z,4.03
2019-05-14T01:38:16.635Z,3.95
2019-05-14T01:39:56.903Z,4.4
2019-05-14T01:41:36.683Z,4.2
2019-05-14T01:43:16.496Z,4.05
2019-05-14T01:44:56.940Z,3.96
2019-05-14T01:46:36.694Z,3.65
2019-05-14T01:48:16.656Z,3.95
2019-05-14T01:49:56.488Z,4.43
2019-05-14T01:51:36.675Z,4.08
2019-05-14T01:53:16.587Z,5.1
2019-05-14T01:54:56.604Z,3.92
2019-05-14T01:56:36.849Z,4.49
2019-05-14T01:58:16.562Z,4.71
2019-05-14T01:59:56.720Z,4.04
2019-05-14T02:01:36.549Z,4.53
2019-05-14T02:03:17.143Z,4.18
2019-05-14T02:04:56.553Z,4.01
2019-05-14T02:06:36.738Z,3.76
2019-05-14T02:08:17.155Z,3.75
2019-05-14T02:09:56.804Z,4.6
2019-05-14T02:11:37.075Z,4.5
2019-05-14T02:13:17.371Z,4.18
2019-05-14T02:14:56.870Z,3.84
2019-05-14T02:16:36.356Z,4.05
2019-05-14T02:18:15.323Z,4.72
2019-05-14T02:19:55.910Z,4.71
2019-05-14T02:21:36.642Z,4.45
2019-05-14T02:24:56.929Z,4.82
2019-05-14T02:26:37.957Z,5.63
2019-05-14T02:28:26.840Z,4.42
2019-05-14T02:30:07.032Z,4.93
2019-05-14T02:31:49.630Z,4.6
2019-05-14T02:33:33.942Z,4.32
2019-05-14T02:35:14.941Z,4.56
2019-05-14T02:36:54.879Z,4.47
2019-05-14T02:38:35.073Z,4.79
2019-05-14T02:40:15.062Z,4.85
2019-05-14T02:41:54.823Z,4.5
2019-05-14T02:43:34.607Z,4.88
2019-05-14T02:45:14.194Z,4.89
2019-05-14T02:46:55.603Z,4.38
2019-05-14T02:48:35.001Z,4.74
2019-05-14T02:51:55.500Z,5.61
2019-05-14T02:53:35.080Z,5.36
2019-05-14T02:55:14.615Z,4.3
2019-05-14T02:56:54.785Z,5.14
2019-05-14T03:00:24.379Z,4.94
2019-05-14T03:03:45.129Z,5.25
2019-05-14T03:05:24.502Z,4.94
2019-05-14T03:07:04.338Z,4.97
2019-05-14T03:08:44.085Z,5.29
2019-05-14T03:10:24.420Z,5.07
2019-05-14T03:12:04.658Z,5.35
2019-05-14T03:15:25.165Z,5.41
2019-05-14T03:17:04.148Z,5.25
2019-05-14T03:18:44.161Z,5.23
2019-05-14T03:20:24.626Z,5.09
2019-05-14T03:22:05.254Z,5.87
2019-05-14T03:23:44.747Z,5.03
2019-05-14T03:25:24.364Z,5.56
2019-05-14T03:27:03.833Z,4.99
2019-05-14T03:28:44.884Z,5.64
2019-05-14T03:30:33.984Z,5.18
2019-05-14T03:32:24.182Z,5.9
2019-05-14T03:34:12.612Z,5.37
2019-05-14T03:37:42.533Z,5.68
2019-05-14T03:39:24.054Z,6.1
2019-05-14T03:41:05.218Z,5.39
2019-05-14T03:42:44.478Z,6.09
2019-05-14T03:44:24.919Z,6
2019-05-14T03:46:04.523Z,5.32
2019-05-14T03:47:44.373Z,5.57
2019-05-14T03:49:24.989Z,5.4
2019-05-14T03:51:08.333Z,5.55
2019-05-14T03:54:34.980Z,6.69
2019-05-14T03:57:55.293Z,7.22
2019-05-14T03:59:35.394Z,6.47
2019-05-14T04:01:14.898Z,6.38
2019-05-14T04:02:54.250Z,6.62
2019-05-14T04:04:34.869Z,5.91
2019-05-14T04:06:15.108Z,6.31
2019-05-14T04:07:55.357Z,5.56
2019-05-14T04:09:34.825Z,5.58
2019-05-14T04:11:14.824Z,5.58
2019-05-14T04:12:54.503Z,5.89
2019-05-14T04:14:34.344Z,5.91
2019-05-14T04:16:13.802Z,4.95
2019-05-14T04:17:55.174Z,5.44
2019-05-14T04:19:34.841Z,5.33
2019-05-14T04:21:15.104Z,5.14
2019-05-14T04:24:44.571Z,5.2
2019-05-14T04:26:24.995Z,5.44
2019-05-14T04:28:04.156Z,5.62
2019-05-14T04:29:44.742Z,5.67
2019-05-14T04:31:24.715Z,5.96
2019-05-14T04:33:03.989Z,5.14
2019-05-14T04:34:44.860Z,4.92
2019-05-14T04:38:09.569Z,6.7
2019-05-14T04:39:52.148Z,5.63
2019-05-14T04:41:34.687Z,5.88
2019-05-14T04:43:15.218Z,5.78
2019-05-14T04:46:35.480Z,5.97
2019-05-14T04:48:44.852Z,5.88
2019-05-14T04:50:33.002Z,6.91
2019-05-14T04:52:15.065Z,5.57
2019-05-14T04:53:55.319Z,5.27
2019-05-14T04:55:34.788Z,5.67
2019-05-14T04:57:15.333Z,5.16
2019-05-14T04:58:54.694Z,5.64
2019-05-14T05:00:35.533Z,4.89
2019-05-14T05:02:15.038Z,5.8
2019-05-14T05:03:58.735Z,4.93
2019-05-14T05:05:49.899Z,5.32
2019-05-14T05:07:32.815Z,4.82
2019-05-14T05:09:14.292Z,5.13
2019-05-14T05:10:54.497Z,4.63
2019-05-14T05:12:34.665Z,5.87
2019-05-14T05:14:14.109Z,5.73
2019-05-14T05:15:53.775Z,5.32
2019-05-14T05:19:30.817Z,5.62
2019-05-14T05:21:12.127Z,5.21
2019-05-14T05:22:53.782Z,5.81
2019-05-14T05:24:33.792Z,5.37
2019-05-14T05:26:14.314Z,6.21
2019-05-14T05:27:56.269Z,6.61
2019-05-14T05:29:36.150Z,5.37
2019-05-14T05:31:18.485Z,6.13
2019-05-14T05:34:44.450Z,6.22
2019-05-14T05:36:23.927Z,6.21
2019-05-14T05:38:03.368Z,5.54
2019-05-14T05:39:43.708Z,5.64
2019-05-14T05:41:24.049Z,6.55
2019-05-14T05:43:03.486Z,5.32
2019-05-14T05:44:44.403Z,5.99
2019-05-14T05:46:24.322Z,5.63
2019-05-14T05:48:08.186Z,5.92
2019-05-14T05:49:50.434Z,5.12
2019-05-14T05:51:32.292Z,6.18
2019-05-14T05:53:14.063Z,6.6
2019-05-14T05:54:54.191Z,6.12
2019-05-14T05:56:33.877Z,5.82
2019-05-14T05:58:13.588Z,5.62
2019-05-14T05:59:52.958Z,6.08
2019-05-14T06:01:58.407Z,5.38
2019-05-14T06:03:52.682Z,6.79
2019-05-14T06:05:34.133Z,6.22
2019-05-14T06:07:13.911Z,6.26
2019-05-14T06:08:54.102Z,5.89
2019-05-14T06:10:34.347Z,5.71
2019-05-14T06:12:13.800Z,5.4
2019-05-14T06:13:53.698Z,5.17
2019-05-14T06:15:55.184Z,11.98
2019-05-14T06:17:44.722Z,7.03
2019-05-14T06:19:24.163Z,15.41
2019-05-14T06:21:03.669Z,18.87
2019-05-14T06:22:43.507Z,7.3
2019-05-14T06:24:24.274Z,14.12
2019-05-14T06:27:44.534Z,16.08
2019-05-14T06:29:24.035Z,16.88
2019-05-14T06:31:04.032Z,9.46
2019-05-14T06:34:25.720Z,7.68
2019-05-14T06:36:05.240Z,8.83
2019-05-14T06:37:44.766Z,11.13
2019-05-14T06:39:24.232Z,8.01
2019-05-14T06:41:04.612Z,8.79
2019-05-14T06:42:44.570Z,7.67
2019-05-14T06:44:23.976Z,19.09
2019-05-14T06:46:03.667Z,18.93
2019-05-14T06:47:43.225Z,16.35
2019-05-14T06:49:22.791Z,6.75
2019-05-14T06:51:03.190Z,8.42
2019-05-14T06:52:43.888Z,13.9
2019-05-14T06:56:04.227Z,7.37
2019-05-14T06:57:44.379Z,25.39
2019-05-14T06:59:23.786Z,18.63
2019-05-14T07:01:04.138Z,6.87
2019-05-14T07:02:50.242Z,7.06
2019-05-14T07:04:32.099Z,6.74
2019-05-14T07:06:14.111Z,10.9
2019-05-14T07:07:53.858Z,36.1
2019-05-14T07:09:34.110Z,15.53
2019-05-14T07:11:13.704Z,16.82
2019-05-14T07:12:54.903Z,9.29
2019-05-14T07:14:34.450Z,8.01
2019-05-14T07:16:14.040Z,30.23
2019-05-14T07:17:53.840Z,8.52
2019-05-14T07:19:34.334Z,6.36
2019-05-14T07:21:13.843Z,6.3
2019-05-14T07:22:53.328Z,5.28
2019-05-14T07:24:35.223Z,6.57
2019-05-14T07:26:18.989Z,6.37
2019-05-14T07:28:00.030Z,6.21
2019-05-14T07:29:42.137Z,5.63
2019-05-14T07:31:23.652Z,7.37
2019-05-14T07:33:03.722Z,9.47
2019-05-14T07:34:44.019Z,7.57
2019-05-14T07:36:24.084Z,7.89
2019-05-14T07:38:04.100Z,6.53
2019-05-14T07:39:43.626Z,6.71
2019-05-14T07:41:24.458Z,7.72
2019-05-14T07:43:03.870Z,6.31
2019-05-14T07:44:44.070Z,6.56
2019-05-14T07:46:24.293Z,6.86
2019-05-14T07:48:03.822Z,6.68
2019-05-14T07:49:43.528Z,5.99
2019-05-14T07:51:23.940Z,5.65
2019-05-14T07:53:08.419Z,7.04
2019-05-14T07:54:49.981Z,6.61
2019-05-14T07:56:32.427Z,7.01
2019-05-14T07:58:13.450Z,6.87
2019-05-14T07:59:53.501Z,6.02
2019-05-14T08:01:33.290Z,6.83
2019-05-14T08:03:13.183Z,7.05
2019-05-14T08:04:53.620Z,8.08
2019-05-14T08:06:33.169Z,7.35
2019-05-14T08:08:13.067Z,6.11
2019-05-14T08:09:53.189Z,8.99
2019-05-14T08:11:33.067Z,6.7
2019-05-14T08:13:13.520Z,12.01
2019-05-14T08:15:24.097Z,6.45
2019-05-14T08:17:10.388Z,9.49
2019-05-14T08:18:52.121Z,10.44
2019-05-14T08:20:33.667Z,7.62
2019-05-14T08:23:54.270Z,6.3
2019-05-14T08:25:33.658Z,5.94
2019-05-14T08:27:13.540Z,5.43
2019-05-14T08:28:53.944Z,5.44
2019-05-14T08:30:33.416Z,5.42
2019-05-14T08:32:14.041Z,5.63
2019-05-14T08:33:53.441Z,5.55
2019-05-14T08:35:39.477Z,5.91
2019-05-14T08:37:20.900Z,5.73
2019-05-14T08:40:44.373Z,6.94
2019-05-14T08:42:23.836Z,7.22
2019-05-14T08:44:04.702Z,7.1
2019-05-14T08:45:48.673Z,6.35
2019-05-14T08:47:30.930Z,5.97
2019-05-14T08:49:12.451Z,6.71
2019-05-14T08:50:53.231Z,6.26
2019-05-14T08:52:33.792Z,5.34
2019-05-14T08:54:13.297Z,6.28
2019-05-14T08:55:53.687Z,6.13
2019-05-14T08:57:33.862Z,5.99
2019-05-14T08:59:14.456Z,5.8
2019-05-14T09:00:53.869Z,6.01
2019-05-14T09:02:33.890Z,5.99
2019-05-14T09:04:13.572Z,6.53
2019-05-14T09:05:54.241Z,6.73
2019-05-14T09:07:33.947Z,6.3
2019-05-14T09:09:14.482Z,6.19
2019-05-14T09:10:54.686Z,5.74
2019-05-14T09:12:34.237Z,6.42
2019-05-14T09:14:18.305Z,5.5
2019-05-14T09:17:43.372Z,5.65
2019-05-14T09:19:24.333Z,6.21
2019-05-14T09:21:03.826Z,6.6
2019-05-14T09:22:44.275Z,5.75
2019-05-14T09:24:23.976Z,6.93
2019-05-14T09:26:03.372Z,5.31
2019-05-14T09:27:43.310Z,5.63
2019-05-14T09:29:33.389Z,5.61
2019-05-14T09:31:13.415Z,5.77
2019-05-14T09:32:54.354Z,5.7
2019-05-14T09:34:34.104Z,5.27
2019-05-14T09:39:53.790Z,6.34
2019-05-14T09:41:35.962Z,5.92
2019-05-14T09:43:17.940Z,5.46
2019-05-14T09:45:05.196Z,5.35
2019-05-14T09:46:44.713Z,5.12
2019-05-14T09:48:24.306Z,5.3
2019-05-14T09:50:28.978Z,4.21
2019-05-14T09:52:15.296Z,5.49
2019-05-14T09:53:54.835Z,6.14
2019-05-14T09:55:34.336Z,4.61
2019-05-14T09:57:13.959Z,3.61
2019-05-14T09:58:54.661Z,4.16
2019-05-14T10:00:34.162Z,4.7
2019-05-14T10:02:14.180Z,4.4
2019-05-14T10:03:54.727Z,4.75
2019-05-14T10:05:34.301Z,5.14
2019-05-14T10:07:17.350Z,4.84
2019-05-14T10:08:58.824Z,4.61
2019-05-14T10:12:31.773Z,4.69
2019-05-14T10:14:12.927Z,3.97
2019-05-14T10:15:53.573Z,5.01
2019-05-14T10:17:34.029Z,4.07
2019-05-14T10:19:15.058Z,4.59
2019-05-14T10:20:54.682Z,4.57
2019-05-14T10:22:34.669Z,3.84
2019-05-14T10:24:14.846Z,4.24
2019-05-14T10:25:54.532Z,4.18
2019-05-14T10:27:34.149Z,3.66
2019-05-14T10:29:14.001Z,4.49
2019-05-14T10:30:54.148Z,4.49
2019-05-14T10:32:34.909Z,4.68
2019-05-14T10:34:14.353Z,4.88
2019-05-14T10:35:53.979Z,4.78
2019-05-14T10:37:34.025Z,4.55
2019-05-14T10:39:14.479Z,5.04
2019-05-14T10:40:54.440Z,3.8
2019-05-14T10:42:34.518Z,4.19
2019-05-14T10:44:14.310Z,5.2
2019-05-14T10:45:54.543Z,5.33
2019-05-14T10:47:34.253Z,4.77
2019-05-14T10:49:29.899Z,5.69
2019-05-14T10:53:01.281Z,5.28
2019-05-14T10:56:44.167Z,4.17
2019-05-14T10:58:24.865Z,4.99
2019-05-14T11:00:04.632Z,4.88
2019-05-14T11:01:44.261Z,5.29
2019-05-14T11:03:24.178Z,5.29
2019-05-14T11:05:04.081Z,4.37
2019-05-14T11:06:43.931Z,3.85
2019-05-14T11:08:24.235Z,3.49
2019-05-14T11:10:04.087Z,4.17
2019-05-14T11:11:43.869Z,3.97
2019-05-14T11:13:24.330Z,3.41
2019-05-14T11:15:04.124Z,4.13
2019-05-14T11:16:48.471Z,4.06
2019-05-14T11:18:34.523Z,5.09
2019-05-14T11:20:14.323Z,15.35
2019-05-14T11:21:54.310Z,3.19
2019-05-14T11:23:34.510Z,4.05
2019-05-14T11:25:14.629Z,4.01
2019-05-14T11:26:54.317Z,3.99
2019-05-14T11:28:34.196Z,5.16
2019-05-14T11:30:14.079Z,4.38
2019-05-14T11:31:53.847Z,3.6
2019-05-14T11:33:34.661Z,3.77
2019-05-14T11:35:20.826Z,3.73
2019-05-14T11:37:02.484Z,3.88
2019-05-14T11:38:42.981Z,3.28
2019-05-14T11:40:24.064Z,4.18
2019-05-14T11:42:04.453Z,3.51
2019-05-14T11:43:45.025Z,3.71
2019-05-14T11:45:24.764Z,3.33
2019-05-14T11:47:08.938Z,2.98
2019-05-14T11:48:52.214Z,3.28
2019-05-14T11:50:34.074Z,3.64
2019-05-14T11:54:00.535Z,3.65
2019-05-14T11:57:27.088Z,3.06
2019-05-14T11:59:08.519Z,4.21
2019-05-14T12:00:48.533Z,3.85
2019-05-14T12:04:14.043Z,3.31
2019-05-14T12:05:54.788Z,3.73
2019-05-14T12:07:34.494Z,3.54
2019-05-14T12:09:18.883Z,3.62
2019-05-14T12:11:01.168Z,4.28
2019-05-14T12:12:40.349Z,3.37
2019-05-14T12:14:22.306Z,3.42
2019-05-14T12:16:04.167Z,3.48
2019-05-14T12:17:44.469Z,3.03
2019-05-14T12:19:23.987Z,4.73
2019-05-14T12:21:04.405Z,2.95
2019-05-14T12:24:23.342Z,2.79
2019-05-14T12:26:03.808Z,3.14
2019-05-14T12:27:43.752Z,2.71
2019-05-14T12:29:23.231Z,3.03
2019-05-14T12:31:03.392Z,3.32
2019-05-14T12:32:44.738Z,3.38
2019-05-14T12:34:24.243Z,3.06
2019-05-14T12:36:05.635Z,3.27
2019-05-14T12:37:45.026Z,3.55
2019-05-14T12:39:24.508Z,3.14
2019-05-14T12:41:04.187Z,3.13
2019-05-14T12:42:43.939Z,4.74
2019-05-14T12:44:24.696Z,3.55
2019-05-14T12:46:03.986Z,3.7
2019-05-14T12:47:43.534Z,3.75
2019-05-14T12:49:23.217Z,3.92
2019-05-14T12:51:04.809Z,3.65
2019-05-14T12:52:44.241Z,4.61
2019-05-14T12:54:24.950Z,3.96
2019-05-14T12:56:04.328Z,3.02
2019-05-14T12:57:44.770Z,3.56
2019-05-14T12:59:24.262Z,3.04
2019-05-14T13:01:04.600Z,3.52
2019-05-14T13:02:44.229Z,3.45
2019-05-14T13:04:24.573Z,2.99
2019-05-14T13:06:04.112Z,3.14
2019-05-14T13:07:50.777Z,3.26
2019-05-14T13:09:30.657Z,3.23
2019-05-14T13:11:12.948Z,3.62
2019-05-14T13:12:52.317Z,3.67
2019-05-14T13:16:15.693Z,3.81
2019-05-14T13:17:55.285Z,3.33
2019-05-14T13:19:34.703Z,4.11
2019-05-14T13:21:14.301Z,3.29
2019-05-14T13:22:56.679Z,3.36
2019-05-14T13:24:39.283Z,3.5
2019-05-14T13:26:20.811Z,3.91
2019-05-14T13:28:02.841Z,3.61
2019-05-14T13:29:42.233Z,2.82
2019-05-14T13:31:23.474Z,3.08
2019-05-14T13:33:04.300Z,3.21
2019-05-14T13:34:44.588Z,3.64
2019-05-14T13:36:28.460Z,2.81
2019-05-14T13:39:53.066Z,2.96
2019-05-14T13:41:33.475Z,3.05
2019-05-14T13:43:20.001Z,3.43
2019-05-14T13:45:01.706Z,3.03
2019-05-14T13:46:41.283Z,3.05
2019-05-14T13:48:23.781Z,2.82
2019-05-14T13:50:03.702Z,3.51
2019-05-14T13:53:23.960Z,3.42
2019-05-14T13:55:03.337Z,3.42
2019-05-14T13:56:43.502Z,3.59
2019-05-14T14:00:13.323Z,3.45
2019-05-14T14:02:00.770Z,3.6
2019-05-14T14:04:12.184Z,2.75
2019-05-14T14:06:00.524Z,3.24
2019-05-14T14:09:23.417Z,3.19
2019-05-14T14:11:14.282Z,3.52
2019-05-14T14:14:34.328Z,3.09
2019-05-14T14:16:23.111Z,2.21
2019-05-14T14:19:51.603Z,3.71
2019-05-14T14:23:33.942Z,3.04
2019-05-14T14:25:17.609Z,2.7
2019-05-14T14:26:59.915Z,2.9
2019-05-14T14:28:42.890Z,3.73
2019-05-14T14:30:23.854Z,3.83
2019-05-14T14:32:03.909Z,3.5
2019-05-14T14:33:44.252Z,3.04
2019-05-14T14:35:32.067Z,3.71
2019-05-14T14:37:13.427Z,2.95
2019-05-14T14:38:54.492Z,4.07
2019-05-14T14:40:35.134Z,3.37
2019-05-14T14:42:14.706Z,3.61
2019-05-14T14:45:53.814Z,3.8
2019-05-14T14:47:33.744Z,3.14
2019-05-14T14:49:18.363Z,2.75
2019-05-14T14:51:00.388Z,3.61
2019-05-14T14:52:39.925Z,2.83
2019-05-14T14:54:21.297Z,4.05
2019-05-14T14:56:03.816Z,3.31
2019-05-14T14:59:38.992Z,2.81
2019-05-14T15:01:21.399Z,3.26
2019-05-14T15:03:04.027Z,2.74
2019-05-14T15:04:44.805Z,2.73
2019-05-14T15:06:24.352Z,3.04
2019-05-14T15:08:05.214Z,2.81
2019-05-14T15:09:48.508Z,3.62
2019-05-14T15:11:31.076Z,2.84
2019-05-14T15:13:12.622Z,3.28
2019-05-14T15:14:53.782Z,3.68
2019-05-14T15:16:34.146Z,4.69
2019-05-14T15:19:55.229Z,3.11
2019-05-14T15:21:35.250Z,2.91
2019-05-14T15:23:14.919Z,3.76
2019-05-14T15:24:54.460Z,2.96
2019-05-14T15:26:34.014Z,3.18
2019-05-14T15:29:53.921Z,3.16
2019-05-14T15:31:34.158Z,3.46
2019-05-14T15:33:14.177Z,2.64
2019-05-14T15:34:55.677Z,2.82
2019-05-14T15:36:35.212Z,2.72
2019-05-14T15:38:16.438Z,4.59
2019-05-14T15:39:55.993Z,3.6
2019-05-14T15:41:35.504Z,3.29
2019-05-14T15:45:03.145Z,3.66
2019-05-14T15:46:46.072Z,3.47
2019-05-14T15:48:25.477Z,4.86
2019-05-14T15:50:04.942Z,3.79
2019-05-14T15:51:44.782Z,2.77
2019-05-14T15:53:24.579Z,3.21
2019-05-14T15:55:04.026Z,2.6
2019-05-14T15:56:44.352Z,2.73
2019-05-14T15:58:30.188Z,2.94
2019-05-14T16:00:11.388Z,3.3
2019-05-14T16:01:50.937Z,2.59
2019-05-14T16:03:32.874Z,2.56
2019-05-14T16:05:15.194Z,3.92
2019-05-14T16:06:54.799Z,3.24
2019-05-14T16:08:34.656Z,3.16
2019-05-14T16:10:14.148Z,3.41
2019-05-14T16:11:53.655Z,3.13
2019-05-14T16:13:33.621Z,3.04
2019-05-14T16:16:56.679Z,3.27
2019-05-14T16:18:38.074Z,3.63
2019-05-14T16:22:13.084Z,3.75
2019-05-14T16:23:52.580Z,3.05
2019-05-14T16:25:33.544Z,2.74
2019-05-14T16:27:12.809Z,2.48
2019-05-14T16:28:52.310Z,3.11
2019-05-14T16:30:34.061Z,3.16
2019-05-14T16:32:13.491Z,2.4
2019-05-14T16:35:40.932Z,2.81
2019-05-14T16:39:11.417Z,2.94
2019-05-14T16:40:53.832Z,3.01
2019-05-14T16:42:34.123Z,3.17
2019-05-14T16:45:54.180Z,2.85
2019-05-14T16:47:33.765Z,3.42
2019-05-14T16:49:13.892Z,2.7
2019-05-14T16:50:53.991Z,4.15
2019-05-14T16:52:33.732Z,2.41
2019-05-14T16:54:13.216Z,2.59
2019-05-14T16:55:53.892Z,3.18
2019-05-14T16:57:34.411Z,2.52
2019-05-14T16:59:13.971Z,2.91
2019-05-14T17:00:53.495Z,2.88
2019-05-14T17:02:34.509Z,2.69
2019-05-14T17:04:14.190Z,3.28
2019-05-14T17:05:53.687Z,3.55
2019-05-14T17:07:33.851Z,3.32
2019-05-14T17:09:13.839Z,2.71
2019-05-14T17:10:53.332Z,4.62
2019-05-14T17:13:01.689Z,2.59
2019-05-14T17:14:54.377Z,3.14
2019-05-14T17:16:37.018Z,3.15
2019-05-14T17:18:19.089Z,2.52
2019-05-14T17:20:00.518Z,2.69
2019-05-14T17:26:45.580Z,3.35
2019-05-14T17:28:25.158Z,2.35
2019-05-14T17:30:04.748Z,3.13
2019-05-14T17:31:44.255Z,2.54
2019-05-14T17:33:23.775Z,3.51
2019-05-14T17:38:34.633Z,3.17
2019-05-14T17:40:14.753Z,2.89
2019-05-14T17:41:54.102Z,3.82
2019-05-14T17:43:33.512Z,3.14
2019-05-14T17:46:53.824Z,3.38
2019-05-14T17:48:34.704Z,3.22
2019-05-14T17:50:14.266Z,2.49
2019-05-14T17:51:53.775Z,2.84
2019-05-14T17:53:33.448Z,2.97
2019-05-14T17:55:18.732Z,2.88
2019-05-14T17:57:08.374Z,3.2
2019-05-14T17:58:57.925Z,2.72
2019-05-14T18:00:39.794Z,3.25
2019-05-14T18:04:12.212Z,3.04
2019-05-14T18:05:51.632Z,3.87
2019-05-14T18:07:33.489Z,3.28
2019-05-14T18:09:14.110Z,2.87
2019-05-14T18:10:55.651Z,2.93
2019-05-14T18:12:40.933Z,3
2019-05-14T18:16:02.982Z,2.88
2019-05-14T18:17:44.320Z,3.62
2019-05-14T18:19:23.784Z,3.28
2019-05-14T18:21:03.319Z,2.97
2019-05-14T18:22:48.631Z,2.75
2019-05-14T18:26:13.922Z,3.37
2019-05-14T18:27:54.769Z,3.23
2019-05-14T18:29:34.013Z,3.41
2019-05-14T18:31:14.575Z,2.52
2019-05-14T18:32:53.929Z,4.3
2019-05-14T18:34:32.847Z,2.44
2019-05-14T18:36:12.303Z,2.25
2019-05-14T18:37:53.180Z,2.83
2019-05-14T18:39:33.375Z,2.85
2019-05-14T18:41:13.468Z,2.58
2019-05-14T18:42:53.077Z,2.63
2019-05-14T18:44:33.477Z,3.04
2019-05-14T18:46:13.627Z,3.44
2019-05-14T18:47:53.524Z,5.3
2019-05-14T18:51:13.962Z,4.05
2019-05-14T18:52:52.918Z,5.7
2019-05-14T18:54:34.228Z,6.98
2019-05-14T18:56:30.800Z,5.86
2019-05-14T18:58:11.971Z,5.26
2019-05-14T18:59:54.302Z,5.33
2019-05-14T19:03:20.901Z,4.26
2019-05-14T19:05:02.770Z,2.86
2019-05-14T19:06:43.313Z,2.95
2019-05-14T19:08:22.878Z,3.04
2019-05-14T19:10:03.652Z,3.36
2019-05-14T19:11:43.832Z,2.07
2019-05-14T19:13:23.597Z,3.61
2019-05-14T19:15:04.061Z,2.73
2019-05-14T19:16:43.557Z,2.56
2019-05-14T19:18:24.171Z,2.81
2019-05-14T19:20:03.910Z,3.04
2019-05-14T19:21:43.455Z,3.3
2019-05-14T19:23:23.722Z,3.24
2019-05-14T19:25:03.176Z,3.11
2019-05-14T19:26:45.404Z,3.16
2019-05-14T19:28:24.932Z,3.11
2019-05-14T19:30:10.058Z,2.87
2019-05-14T19:33:41.324Z,3.43
2019-05-14T19:35:22.652Z,3.8
2019-05-14T19:37:02.190Z,3.41
2019-05-14T19:38:43.823Z,2.92
2019-05-14T19:42:02.740Z,2.75
2019-05-14T19:43:42.164Z,3.35
2019-05-14T19:45:21.595Z,2.49
2019-05-14T19:47:02.571Z,4.04
2019-05-14T19:48:42.106Z,2.44
2019-05-14T19:50:23.742Z,2.92
2019-05-14T19:52:03.845Z,2.91
2019-05-14T19:53:44.199Z,3.3
2019-05-14T19:55:24.122Z,2.93
2019-05-14T19:57:05.934Z,2.71
2019-05-14T19:58:45.422Z,2.63
2019-05-14T20:00:24.782Z,2.9
2019-05-14T20:02:04.225Z,2.59
2019-05-14T20:03:46.366Z,2.78
2019-05-14T20:05:28.455Z,2.9
2019-05-14T20:07:10.578Z,3.68
2019-05-14T20:08:51.619Z,3.39
2019-05-14T20:10:32.679Z,3.37
2019-05-14T20:12:12.340Z,3.14
2019-05-14T20:13:52.986Z,3.02
2019-05-14T20:15:31.903Z,3.14
2019-05-14T20:17:13.884Z,3.16
2019-05-14T20:18:53.792Z,3.53
2019-05-14T20:22:13.766Z,3.32
2019-05-14T20:23:53.206Z,3.54
2019-05-14T20:27:19.779Z,4.64
2019-05-14T20:29:00.786Z,3.76
2019-05-14T20:30:43.305Z,5.44
2019-05-14T20:32:24.441Z,3.83
2019-05-14T20:34:03.499Z,3.89
2019-05-14T20:35:43.153Z,4.27
2019-05-14T20:37:23.896Z,3.33
2019-05-14T20:40:50.546Z,3.18
2019-05-14T20:42:32.296Z,3.01
2019-05-14T20:44:11.810Z,3.16
2019-05-14T20:45:53.271Z,3.69
2019-05-14T20:47:32.489Z,3.47
2019-05-14T20:49:13.809Z,3.83
2019-05-14T20:50:53.306Z,3.23
2019-05-14T20:52:33.343Z,3.24
2019-05-14T20:54:13.844Z,2.92
2019-05-14T20:55:52.957Z,2.75
2019-05-14T20:59:31.595Z,2.71
2019-05-14T21:01:18.358Z,3.08
2019-05-14T21:03:01.355Z,3.07
2019-05-14T21:04:41.195Z,2.49
2019-05-14T21:06:22.399Z,3.22
2019-05-14T21:09:44.126Z,2.64
2019-05-14T21:11:24.532Z,2.75
2019-05-14T21:13:04.627Z,2.93
2019-05-14T21:14:49.097Z,3.71
2019-05-14T21:18:42.829Z,2.47
2019-05-14T21:20:23.269Z,2.58
2019-05-14T21:22:04.116Z,2.68
2019-05-14T21:23:48.905Z,3.1
2019-05-14T21:25:31.593Z,3.14
2019-05-14T21:27:12.893Z,2.7
2019-05-14T21:28:53.968Z,3.1
2019-05-14T21:32:14.869Z,3.15
2019-05-14T21:33:54.896Z,3.22
2019-05-14T21:35:34.859Z,2.56
2019-05-14T21:37:14.727Z,2.56
2019-05-14T21:38:54.522Z,3.17
2019-05-14T21:40:38.893Z,2.75
2019-05-14T21:42:21.447Z,3.21
2019-05-14T21:45:45.524Z,2.98
2019-05-14T21:47:25.442Z,2.93
2019-05-14T21:49:05.348Z,2.59
2019-05-14T21:50:45.265Z,2.76
2019-05-14T21:52:25.116Z,2.19
2019-05-14T21:54:05.011Z,2.92
2019-05-14T21:55:44.766Z,2.44
2019-05-14T21:57:24.679Z,3.11
2019-05-14T21:59:09.258Z,2.82
2019-05-14T22:02:38.131Z,3.07
2019-05-14T22:04:24.083Z,2.7
2019-05-14T22:06:04.636Z,2.73
2019-05-14T22:07:44.491Z,2.51
2019-05-14T22:09:24.429Z,2.47
2019-05-14T22:11:04.363Z,2.6
2019-05-14T22:12:44.857Z,2.91
2019-05-14T22:14:24.802Z,3.27
2019-05-14T22:16:04.723Z,3.15
2019-05-14T22:17:44.598Z,3.7
2019-05-14T22:19:24.563Z,2.67
2019-05-14T22:21:04.416Z,2.8
2019-05-14T22:22:44.498Z,2.97
2019-05-14T22:24:28.511Z,2.83
2019-05-14T22:26:08.572Z,2.68
2019-05-14T22:27:50.290Z,2.98
2019-05-14T22:29:32.232Z,2.61
2019-05-14T22:31:16.400Z,2.68
2019-05-14T22:33:00.145Z,3.31
2019-05-14T22:36:29.280Z,2.74
2019-05-14T22:38:09.333Z,2.57
2019-05-14T22:39:49.888Z,3.04
2019-05-14T22:43:23.650Z,2.66
2019-05-14T22:45:03.687Z,2.91
2019-05-14T22:46:45.554Z,2.83
2019-05-14T22:48:25.415Z,2.89
2019-05-14T22:50:05.319Z,3.07
2019-05-14T22:51:45.237Z,2.99
2019-05-14T22:53:25.357Z,2.82
2019-05-14T22:55:05.172Z,2.52
2019-05-14T22:56:45.039Z,2.66
2019-05-14T22:58:32.456Z,3.1
2019-05-14T23:00:12.346Z,2.91
2019-05-14T23:01:53.279Z,2.37
2019-05-14T23:03:34.183Z,2.93
2019-05-14T23:05:14.059Z,2.95
2019-05-14T23:06:54.081Z,2.97
2019-05-14T23:08:33.995Z,2.52
2019-05-14T23:10:14.347Z,2.55
2019-05-14T23:11:54.221Z,2.89
2019-05-14T23:13:34.198Z,2.89
2019-05-14T23:15:14.056Z,2.53
2019-05-14T23:16:54.427Z,2.97
2019-05-14T23:18:34.323Z,2.47
2019-05-14T23:21:59.855Z,2.86
2019-05-14T23:25:31.023Z,2.76
2019-05-14T23:27:13.499Z,2.84
2019-05-14T23:28:54.428Z,2.3
2019-05-14T23:30:34.267Z,2.66
2019-05-14T23:32:14.141Z,2.93
2019-05-14T23:33:54.288Z,2.56
2019-05-14T23:35:34.134Z,2.51
2019-05-14T23:37:13.939Z,2.75
2019-05-14T23:38:54.526Z,2.91
2019-05-14T23:40:34.422Z,3.26
2019-05-14T23:42:14.287Z,2.98
2019-05-14T23:43:54.191Z,2.66
2019-05-14T23:45:34.132Z,2.82
2019-05-14T23:47:13.989Z,2.55
2019-05-14T23:48:53.837Z,2.97
2019-05-14T23:50:33.678Z,2.69
2019-05-14T23:52:13.591Z,2.94
2019-05-14T23:53:53.603Z,3.09
2019-05-14T23:55:34.265Z,2.65
2019-05-14T23:57:14.235Z,2.54
2019-05-14T23:59:05.586Z,2.47
